Time;durP1;ratioP1;P1;durP2;ratioP2;P2;SDS_P1;SDS_P2;PMS_P1;PMS_P2;Temp;Humidity;BMP_temperature;BMP_pressure;BME280_temperature;BME280_humidity;BME280_pressure;Samples;Min_cycle;Max_cycle;Signal;HPM_P1;HPM_P2
2022/11/17 00:00:25;;;;;;;5.50;1.42;;;;;;;3.38;72.94;99553.02;1681415;83;21136;-51
2022/11/17 00:02:52;;;;;;;5.05;1.60;;;;;;;3.33;72.98;99546.80;1682630;83;21603;-52
2022/11/17 00:05:18;;;;;;;6.78;2.42;;;;;;;3.27;73.01;99552.37;1679739;83;21133;-54
2022/11/17 00:07:45;;;;;;;6.15;3.42;;;;;;;3.23;73.15;99551.36;1680211;83;21007;-54
2022/11/17 00:10:12;;;;;;;6.25;2.17;;;;;;;3.28;73.06;99549.33;1672994;85;21137;-54
2022/11/17 00:15:26;;;;;;;4.62;1.95;;;;;;;3.27;72.89;99539.38;1679238;83;21159;-53
2022/11/17 00:23:24;;;;;;;4.95;1.62;;;;;;;3.11;73.06;99546.45;1677610;83;28201;-54
2022/11/17 00:25:53;;;;;;;5.70;2.10;;;;;;;3.12;73.09;99546.36;1665716;83;21094;-54
2022/11/17 00:28:20;;;;;;;6.17;1.98;;;;;;;3.16;73.20;99541.36;1670180;84;22257;-53
2022/11/17 00:36:18;;;;;;;5.58;2.40;;;;;;;3.01;73.32;99534.97;1670244;83;21089;-54
2022/11/17 00:38:44;;;;;;;5.62;1.70;;;;;;;2.92;73.27;99542.88;1673823;83;22269;-53
2022/11/17 00:41:13;;;;;;;6.10;2.35;;;;;;;2.90;73.38;99536.95;1667294;83;21304;-54
2022/11/17 00:43:41;;;;;;;5.05;1.87;;;;;;;2.90;73.40;99545.57;1667310;83;21086;-53
2022/11/17 00:46:08;;;;;;;7.72;4.80;;;;;;;2.90;73.51;99544.74;1676548;84;21121;-54
2022/11/17 00:48:36;;;;;;;5.58;2.27;;;;;;;2.87;73.70;99541.03;1670627;84;21018;-54
2022/11/17 00:51:05;;;;;;;4.80;2.05;;;;;;;2.83;73.86;99542.16;1669719;83;21097;-52
2022/11/17 00:53:33;;;;;;;7.47;4.97;;;;;;;2.78;74.01;99533.34;1677460;83;22069;-54
2022/11/17 00:56:00;;;;;;;5.85;2.65;;;;;;;2.77;74.11;99540.75;1670344;83;21099;-53
2022/11/17 00:58:27;;;;;;;6.28;2.15;;;;;;;2.84;74.08;99530.38;1666779;84;21224;-54
2022/11/17 01:00:54;;;;;;;7.78;2.90;;;;;;;2.88;73.85;99535.74;1670250;83;21074;-53
2022/11/17 01:03:21;;;;;;;5.60;2.52;;;;;;;2.86;74.06;99528.95;1665291;83;21578;-53
2022/11/17 01:05:49;;;;;;;5.92;2.15;;;;;;;2.85;74.21;99533.33;1665070;83;21399;-53
2022/11/17 01:08:16;;;;;;;5.60;2.17;;;;;;;2.82;74.26;99532.69;1668511;84;21480;-53
2022/11/17 01:10:43;;;;;;;7.50;2.62;;;;;;;2.81;74.34;99534.90;1666857;84;21586;-53
2022/11/17 01:13:10;;;;;;;8.35;2.85;;;;;;;2.84;74.24;99529.08;1645649;85;21589;-53
2022/11/17 01:15:37;;;;;;;5.33;2.35;;;;;;;2.89;74.07;99527.47;1668549;83;21094;-53
2022/11/17 01:18:05;;;;;;;8.18;2.25;;;;;;;2.87;74.17;99529.34;1669843;84;21358;-54
2022/11/17 01:20:32;;;;;;;6.17;2.22;;;;;;;2.84;74.04;99533.42;1667325;83;21107;-54
2022/11/17 01:22:59;;;;;;;8.60;5.05;;;;;;;2.79;74.27;99529.35;1665726;83;21564;-53
2022/11/17 01:25:26;;;;;;;6.28;2.62;;;;;;;2.81;74.21;99529.70;1618965;85;21139;-54
2022/11/17 01:27:58;;;;;;;6.87;2.55;;;;;;;2.82;74.11;99528.31;1612853;87;21052;-53
2022/11/17 01:30:24;;;;;;;7.78;4.90;;;;;;;2.86;74.06;99528.95;1615364;87;21304;-52
2022/11/17 01:32:51;;;;;;;6.40;2.52;;;;;;;2.92;74.06;99535.08;1587322;88;21081;-53
2022/11/17 01:35:18;;;;;;;6.75;2.62;;;;;;;2.89;74.11;99532.23;1585210;88;21087;-53
2022/11/17 01:37:45;;;;;;;6.03;3.17;;;;;;;2.83;73.67;99531.77;1642771;85;21149;-54
2022/11/17 01:40:14;;;;;;;6.50;3.17;;;;;;;2.73;73.67;99537.52;1608121;87;21051;-54
2022/11/17 01:42:42;;;;;;;8.10;3.00;;;;;;;2.65;73.73;99532.42;1608584;87;21955;-55
2022/11/17 01:45:21;;;;;;;7.72;3.60;;;;;;;2.66;73.62;99538.00;1635369;85;21093;-54
2022/11/17 01:47:58;;;;;;;6.25;2.37;;;;;;;2.56;74.33;99535.94;1639409;85;21748;-54
2022/11/17 01:50:37;;;;;;;6.75;3.02;;;;;;;2.60;74.35;99542.61;1640849;85;21131;-54
2022/11/17 01:53:08;;;;;;;7.30;3.17;;;;;;;2.60;74.54;99532.69;1641270;85;21525;-54
2022/11/17 01:55:39;;;;;;;7.30;3.47;;;;;;;2.54;74.57;99535.20;1644267;85;21235;-53
2022/11/17 01:58:20;;;;;;;7.17;3.20;;;;;;;2.55;74.47;99535.56;1640973;85;21030;-52
2022/11/17 02:00:46;;;;;;;6.58;3.22;;;;;;;2.60;74.30;99540.01;1622428;85;21117;-53
2022/11/17 02:03:13;;;;;;;9.83;6.92;;;;;;;2.59;74.17;99538.36;1636270;85;21173;-53
2022/11/17 02:05:57;;;;;;;8.93;3.98;;;;;;;2.57;74.39;99535.47;1640667;85;21595;-53
2022/11/17 02:08:27;;;;;;;7.22;2.92;;;;;;;2.57;74.68;99531.57;1639751;85;21273;-53
2022/11/17 02:10:54;;;;;;;7.40;3.25;;;;;;;2.56;74.22;99533.81;1639600;85;21070;-53
2022/11/17 02:13:21;;;;;;;7.92;4.05;;;;;;;2.59;74.13;99534.46;1643134;85;21559;-54
2022/11/17 02:15:47;;;;;;;8.38;3.10;;;;;;;2.59;73.95;99534.46;1639090;85;21680;-53
2022/11/17 02:18:15;;;;;;;6.67;3.50;;;;;;;2.56;73.78;99536.41;1641392;85;21111;-52
2022/11/17 02:20:50;;;;;;;7.08;3.33;;;;;;;2.51;74.04;99541.05;1639750;85;21230;-52
2022/11/17 02:23:38;;;;;;;8.45;3.77;;;;;;;2.43;74.16;99544.56;1640169;85;21019;-52
2022/11/17 02:27:01;;;;;;;6.75;3.27;;;;;;;2.38;74.49;99543.53;1685377;83;21410;-53
2022/11/17 02:30:04;;;;;;;8.03;3.33;;;;;;;2.39;74.47;99543.92;1679218;83;21137;-54
2022/11/17 02:32:36;;;;;;;8.23;2.90;;;;;;;2.49;74.35;99547.63;1683236;83;21045;-53
2022/11/17 02:35:26;;;;;;;8.05;4.05;;;;;;;2.51;74.11;99547.07;1678257;83;21197;-55
2022/11/17 02:38:17;;;;;;;7.10;2.87;;;;;;;2.46;74.19;99549.59;1678553;83;21117;-52
2022/11/17 02:41:05;;;;;;;9.10;3.83;;;;;;;2.40;74.36;99550.77;1678884;83;21583;-53
2022/11/17 02:45:05;;;;;;;10.35;3.87;;;;;;;2.26;74.91;99542.50;1852297;76;22753;-96
2022/11/17 02:50:55;;;;;;;9.90;4.00;;;;;;;2.38;74.22;99537.88;1689900;82;21224;-87
2022/11/17 02:53:23;;;;;;;8.03;3.45;;;;;;;2.46;74.11;99543.09;1717736;81;21073;-87
2022/11/17 03:02:45;;;;;;;6.75;3.10;;;;;;;2.29;73.49;99538.44;1661659;84;21149;-87
2022/11/17 03:06:03;;;;;;;9.50;4.85;;;;;;;2.27;73.30;99542.89;1640220;84;21751;-87
2022/11/17 03:09:00;;;;;;;8.35;4.42;;;;;;;2.29;73.35;99537.14;1655802;83;21142;-88
2022/11/17 03:12:08;;;;;;;9.43;4.12;;;;;;;2.28;73.53;99535.92;1548627;87;21694;-88
2022/11/17 03:15:25;;;;;;;9.60;3.80;;;;;;;2.15;73.86;99537.95;1565472;87;21132;-87
2022/11/17 03:21:03;;;;;;;10.63;3.77;;;;;;;2.17;73.99;99540.44;1483398;93;21166;-87
2022/11/17 03:24:04;;;;;;;9.60;4.50;;;;;;;2.19;73.55;99542.03;1554679;88;20986;-85
2022/11/17 03:27:38;;;;;;;9.78;3.77;;;;;;;2.17;73.54;99540.44;1532096;93;20915;-84
2022/11/17 03:30:23;;;;;;;9.33;4.17;;;;;;;2.14;73.66;99544.06;1531388;91;21157;-84
2022/11/17 03:33:54;;;;;;;7.57;3.67;;;;;;;2.13;73.73;99541.55;1533195;93;20995;-88
2022/11/17 03:36:12;;;;;;;7.25;3.37;;;;;;;2.12;73.47;99542.02;1544580;90;21069;-86
2022/11/17 03:39:28;;;;;;;7.78;3.42;;;;;;;2.20;73.27;99545.45;1555420;90;21117;-86
2022/11/17 03:42:21;;;;;;;9.85;4.47;;;;;;;2.20;73.37;99540.26;1547604;89;21125;-83
2022/11/17 03:45:31;;;;;;;8.75;3.65;;;;;;;2.21;73.40;99541.47;1548803;91;21074;-83
2022/11/17 03:48:02;;;;;;;7.12;4.28;;;;;;;2.18;73.11;99531.73;1553476;89;21136;-84
2022/11/17 03:50:36;;;;;;;8.77;3.53;;;;;;;2.15;72.62;99526.72;1581936;89;21860;-84
2022/11/17 03:53:12;;;;;;;8.28;3.62;;;;;;;2.16;72.03;99528.40;1552950;89;21109;-84
2022/11/17 03:56:19;;;;;;;9.45;4.85;;;;;;;2.11;72.19;99533.03;1597477;87;21047;-85
2022/11/17 03:59:50;;;;;;;;;;;;;;;;;;;;;
2022/11/17 04:02:59;;;;;;;;;;;;;;;;;;;;;
2022/11/17 04:05:53;;;;;;;6.85;3.30;;;;;;;1.90;72.29;99533.80;1633541;88;20943;-87
2022/11/17 04:08:45;;;;;;;;;;;;;;;;;;;;;
2022/11/17 04:17:18;;;;;;;8.90;3.87;;;;;;;1.99;72.51;99524.20;1618729;87;21028;-86
2022/11/17 04:20:17;;;;;;;11.25;4.42;;;;;;;1.95;72.25;99514.47;1641140;85;21494;-84
2022/11/17 04:29:12;;;;;;;10.25;3.50;;;;;;;1.95;71.87;99517.06;1561627;88;21201;-85
2022/11/17 04:31:56;;;;;;;7.47;3.52;;;;;;;1.91;72.10;99527.23;1606029;86;21858;-85
2022/11/17 04:34:48;;;;;;;9.50;3.87;;;;;;;1.94;72.22;99527.52;1664109;84;21350;-84
2022/11/17 04:37:38;;;;;;;;;;;;;;;;;;;;;
2022/11/17 04:40:19;;;;;;;7.05;3.95;;;;;;;2.07;71.91;99529.78;1580821;88;21093;-84
2022/11/17 04:43:17;;;;;;;8.00;3.70;;;;;;;2.09;71.12;99518.02;1608922;86;21215;-87
2022/11/17 04:45:55;;;;;;;7.10;3.55;;;;;;;2.02;71.27;99524.02;1696243;82;21151;-86
2022/11/17 04:48:56;;;;;;;;;;;;;;;;;;;;;
2022/11/17 04:51:30;;;;;;;8.58;3.27;;;;;;;1.92;71.07;99517.23;1647955;82;21536;-87
2022/11/17 04:57:12;;;;;;;8.78;3.25;;;;;;;1.97;71.29;99523.46;1690781;82;21549;-87
2022/11/17 04:59:55;;;;;;;6.80;3.10;;;;;;;1.90;70.97;99526.02;1667747;84;20997;-85
2022/11/17 05:02:42;;;;;;;;;;;;;;;;;;;;;
2022/11/17 05:05:24;;;;;;;8.15;3.80;;;;;;;1.75;71.39;99529.88;1687610;81;21263;-85
2022/11/17 05:08:13;;;;;;;8.85;3.72;;;;;;;1.77;71.82;99533.22;1676035;82;21113;-84
2022/11/17 05:14:19;;;;;;;8.85;4.05;;;;;;;1.82;71.21;99542.04;1696002;82;21019;-84
2022/11/17 05:17:17;;;;;;;9.85;3.52;;;;;;;1.77;71.49;99549.25;1691920;82;21338;-85
2022/11/17 05:20:10;;;;;;;8.53;3.60;;;;;;;1.70;71.23;99546.17;1684123;81;21315;-85
2022/11/17 05:25:43;;;;;;;8.83;4.70;;;;;;;1.82;71.32;99562.80;1669766;82;22642;-85
2022/11/17 05:28:41;;;;;;;7.55;3.55;;;;;;;1.82;71.27;99566.21;1669798;82;21552;-84
2022/11/17 05:34:36;;;;;;;10.30;4.03;;;;;;;1.75;70.51;99574.41;1697773;82;21125;-87
2022/11/17 05:41:13;;;;;;;8.33;4.15;;;;;;;1.78;70.58;99569.06;1590516;88;21065;-84
2022/11/17 05:43:53;;;;;;;;;;;;;;;;;;;;;
2022/11/17 05:46:30;;;;;;;9.70;4.70;;;;;;;1.75;70.39;99568.79;1612041;87;21134;-84
2022/11/17 05:54:57;;;;;;;7.70;3.90;;;;;;;1.98;70.21;99601.19;1617815;85;21132;-88
2022/11/17 05:57:44;;;;;;;9.28;4.80;;;;;;;2.06;69.92;99602.53;1612621;86;21010;-88
2022/11/17 06:00:33;;;;;;;9.75;4.62;;;;;;;2.01;69.38;99595.83;1592977;86;21195;-88
2022/11/17 06:07:17;;;;;;;8.68;3.80;;;;;;;1.83;70.21;99566.59;1557591;90;21105;-85
2022/11/17 06:10:15;;;;;;;9.40;3.70;;;;;;;1.88;70.03;99547.33;1589672;87;21145;-90
2022/11/17 06:13:26;;;;;;;;;;;;;;;;;;;;;
2022/11/17 06:15:57;;;;;;;;;;;;;;;;;;;;;
2022/11/17 06:18:18;;;;;;;11.80;5.87;;;;;;;1.76;71.11;99565.25;1616991;87;20994;-88
2022/11/17 06:21:07;;;;;;;;;;;;;;;1.72;71.10;99564.23;1568453;87;21005;-87
2022/11/17 06:27:03;;;;;;;9.78;4.50;;;;;;;1.84;71.20;99573.91;1516408;92;21156;-88
2022/11/17 06:33:15;;;;;;;14.40;5.53;;;;;;;1.72;71.17;99570.25;1496649;92;21059;-84
2022/11/17 06:35:54;;;;;;;10.63;4.08;;;;;;;1.70;70.81;99565.62;1486478;92;21305;-84
2022/11/17 06:38:32;;;;;;;12.58;5.10;;;;;;;1.74;70.78;99561.09;1517311;92;21102;-84
2022/11/17 06:41:44;;;;;;;;;;;;;;;;;;;;;
2022/11/17 06:44:41;;;;;;;;;;;;;;;;;;;;;
2022/11/17 06:53:00;;;;;;;11.95;6.42;;;;;;;1.79;71.12;99532.66;1513169;92;21039;-86
2022/11/17 06:59:14;;;;;;;;;;;;;;;;;;;;;
2022/11/17 07:01:56;;;;;;;;;;;;;;;;;;;;;
2022/11/17 07:05:07;;;;;;;12.20;4.58;;;;;;;1.74;70.38;99556.73;1656132;83;21077;-83
2022/11/17 07:08:53;;;;;;;10.82;6.25;;;;;;;1.65;70.39;99543.83;1756795;78;22563;-60
2022/11/17 07:11:21;;;;;;;10.68;4.90;;;;;;;1.70;69.83;99546.17;1744567;81;21078;-62
2022/11/17 07:13:47;;;;;;;12.68;5.30;;;;;;;1.69;70.00;99543.66;1743676;81;21287;-60
2022/11/17 07:16:18;;;;;;;11.20;5.08;;;;;;;1.67;69.59;99535.96;1743807;81;20944;-60
2022/11/17 07:18:45;;;;;;;11.90;5.28;;;;;;;1.70;69.62;99538.83;1748657;81;21077;-59
2022/11/17 07:21:13;;;;;;;10.58;5.05;;;;;;;1.65;69.93;99546.42;1747356;80;21457;-60
2022/11/17 07:23:41;;;;;;;13.43;6.20;;;;;;;1.60;70.23;99549.73;1743353;81;20988;-61
2022/11/17 07:26:08;;;;;;;9.50;4.62;;;;;;;1.63;69.92;99545.68;1731313;81;22247;-60
2022/11/17 07:28:34;;;;;;;9.80;5.42;;;;;;;1.59;69.24;99548.05;1741685;80;21574;-60
2022/11/17 07:31:05;;;;;;;11.25;5.53;;;;;;;1.55;69.18;99550.92;1744290;80;21059;-60
2022/11/17 07:33:33;;;;;;;11.60;5.83;;;;;;;1.51;69.11;99547.64;1740635;80;21647;-60
2022/11/17 07:36:05;;;;;;;9.05;4.45;;;;;;;1.47;69.36;99534.49;1747159;80;21063;-60
2022/11/17 07:38:33;;;;;;;13.60;5.97;;;;;;;1.46;69.34;99544.47;1744744;80;21179;-59
2022/11/17 07:41:02;;;;;;;11.43;5.53;;;;;;;1.51;69.60;99540.34;1737893;80;21085;-60
2022/11/17 07:43:29;;;;;;;11.73;4.50;;;;;;;1.57;69.58;99553.80;1747200;80;21563;-61
2022/11/17 07:45:55;;;;;;;11.80;5.03;;;;;;;1.60;69.25;99549.73;1744874;80;21927;-60
2022/11/17 07:48:23;;;;;;;12.23;5.40;;;;;;;1.59;69.26;99558.89;1734552;80;21492;-61
2022/11/17 07:50:49;;;;;;;13.18;5.50;;;;;;;1.60;69.13;99557.98;1732969;80;21950;-61
2022/11/17 07:53:16;;;;;;;12.33;5.28;;;;;;;1.64;69.20;99559.00;1743121;80;21075;-61
2022/11/17 07:55:43;;;;;;;9.83;4.62;;;;;;;1.66;69.05;99557.18;1740914;80;21079;-60
2022/11/17 07:58:09;;;;;;;12.58;5.37;;;;;;;1.75;69.17;99570.52;1736538;80;21030;-60
2022/11/17 08:00:36;;;;;;;11.83;5.28;;;;;;;1.77;68.87;99567.41;1740168;80;21077;-62
2022/11/17 08:03:03;;;;;;;14.25;6.35;;;;;;;1.79;68.46;99566.85;1741762;80;21448;-62
2022/11/17 08:05:34;;;;;;;13.43;4.80;;;;;;;1.73;68.37;99562.86;1743575;80;21059;-61
2022/11/17 08:08:01;;;;;;;11.10;5.65;;;;;;;1.71;68.47;99570.34;1739977;80;21076;-61
2022/11/17 08:10:30;;;;;;;12.07;5.20;;;;;;;1.65;68.56;99561.16;1732658;80;20990;-61
2022/11/17 08:12:59;;;;;;;9.90;5.58;;;;;;;1.64;68.92;99564.66;1735367;80;21074;-61
2022/11/17 08:15:28;;;;;;;12.13;5.60;;;;;;;1.60;68.74;99570.48;1730096;80;21124;-61
2022/11/17 08:17:58;;;;;;;12.53;6.50;;;;;;;1.54;68.57;99572.11;1734750;80;21054;-63
2022/11/17 08:20:25;;;;;;;12.73;5.80;;;;;;;1.55;68.54;99572.50;1736023;80;21082;-61
2022/11/17 08:22:52;;;;;;;9.40;5.25;;;;;;;1.57;69.08;99571.12;1736613;80;21118;-61
2022/11/17 08:25:20;;;;;;;10.30;5.45;;;;;;;1.59;69.01;99575.28;1739028;80;21058;-62
2022/11/17 08:27:50;;;;;;;9.65;4.80;;;;;;;1.59;69.08;99568.80;1736034;80;21923;-62
2022/11/17 08:30:15;;;;;;;9.98;4.70;;;;;;;1.61;69.00;99574.73;1735804;80;21083;-61
2022/11/17 08:32:51;;;;;;;11.90;4.95;;;;;;;1.68;68.82;99567.44;1735823;80;21067;-61
2022/11/17 08:35:16;;;;;;;15.38;5.37;;;;;;;1.72;68.90;99565.54;1733358;80;21094;-62
2022/11/17 08:37:42;;;;;;;13.38;7.00;;;;;;;1.71;68.97;99567.27;1735718;80;21070;-61
2022/11/17 08:40:11;;;;;;;9.60;5.12;;;;;;;1.73;68.98;99559.41;1732905;80;21258;-62
2022/11/17 08:42:38;;;;;;;11.73;5.87;;;;;;;1.76;68.69;99555.34;1736638;80;21046;-61
2022/11/17 08:45:06;;;;;;;9.60;4.47;;;;;;;1.75;68.53;99554.52;1733440;80;21057;-61
2022/11/17 08:47:33;;;;;;;12.55;6.60;;;;;;;1.72;68.80;99550.80;1739147;80;21115;-61
2022/11/17 08:49:59;;;;;;;12.28;5.10;;;;;;;1.73;69.06;99546.00;1732510;80;21063;-61
2022/11/17 08:52:27;;;;;;;11.65;6.17;;;;;;;1.76;68.26;99532.00;1735395;82;21994;-62
2022/11/17 08:54:54;;;;;;;10.85;4.58;;;;;;;1.75;68.16;99532.48;1733273;80;21040;-61
2022/11/17 08:57:20;;;;;;;9.08;4.50;;;;;;;1.75;68.17;99535.51;1737523;80;21551;-61
2022/11/17 08:59:48;;;;;;;11.35;5.22;;;;;;;1.75;68.44;99531.62;1737707;80;21601;-60
2022/11/17 09:02:15;;;;;;;9.63;5.15;;;;;;;1.79;68.61;99531.84;1733382;80;21492;-61
2022/11/17 09:04:44;;;;;;;13.10;6.17;;;;;;;1.82;68.61;99527.77;1733471;80;22217;-62
2022/11/17 09:07:10;;;;;;;12.70;6.00;;;;;;;1.84;68.69;99528.04;1735125;80;21058;-61
2022/11/17 09:09:37;;;;;;;11.25;5.58;;;;;;;1.86;68.41;99522.77;1733601;80;21034;-62
2022/11/17 09:12:04;;;;;;;12.10;6.70;;;;;;;1.88;67.94;99521.38;1735515;80;21055;-62
2022/11/17 09:14:31;;;;;;;7.53;4.12;;;;;;;1.88;67.60;99512.30;1734752;82;21689;-61
2022/11/17 09:16:58;;;;;;;12.03;5.33;;;;;;;1.83;67.13;99513.86;1739768;80;21269;-61
2022/11/17 09:19:25;;;;;;;13.05;5.58;;;;;;;1.81;67.18;99510.53;1704859;82;21133;-61
2022/11/17 09:21:51;;;;;;;11.68;5.75;;;;;;;1.79;67.51;99517.56;1741733;82;21634;-62
2022/11/17 09:24:18;;;;;;;10.15;5.25;;;;;;;1.77;67.81;99511.17;1737449;82;22196;-62
2022/11/17 09:26:44;;;;;;;9.40;5.20;;;;;;;1.78;67.67;99511.55;1736309;82;21053;-62
2022/11/17 09:29:12;;;;;;;11.63;5.28;;;;;;;1.82;67.49;99518.70;1733614;82;21101;-62
2022/11/17 09:31:57;;;;;;;9.35;5.12;;;;;;;1.87;67.85;99517.97;1728794;82;21062;-62
2022/11/17 09:34:24;;;;;;;9.28;4.50;;;;;;;1.95;67.85;99522.69;1704496;83;21055;-61
2022/11/17 09:36:51;;;;;;;12.90;5.85;;;;;;;1.97;67.32;99525.59;1739914;81;21071;-62
2022/11/17 09:39:17;;;;;;;11.35;5.10;;;;;;;1.95;66.70;99514.91;1730649;82;21046;-61
2022/11/17 09:41:47;;;;;;;10.43;5.53;;;;;;;1.94;66.79;99504.17;1703372;84;21178;-61
2022/11/17 09:44:42;;;;;;;9.90;4.70;;;;;;;1.91;66.09;99498.69;1734873;82;21092;-62
2022/11/17 09:47:36;;;;;;;10.23;4.60;;;;;;;1.83;66.30;99491.81;1734464;82;21035;-62
2022/11/17 09:50:32;;;;;;;9.78;4.95;;;;;;;1.82;66.45;99487.09;1735097;82;21091;-62
2022/11/17 09:53:28;;;;;;;11.95;5.10;;;;;;;1.82;67.03;99488.86;1734345;82;21038;-62
2022/11/17 09:56:03;;;;;;;11.03;5.00;;;;;;;1.87;66.91;99494.61;1735650;82;21851;-62
2022/11/17 09:58:45;;;;;;;14.93;5.22;;;;;;;1.85;67.17;99489.52;1733392;82;21090;-62
2022/11/17 10:01:18;;;;;;;9.85;4.47;;;;;;;1.95;66.83;99497.60;1735946;82;21041;-62
2022/11/17 10:03:46;;;;;;;12.15;5.67;;;;;;;1.97;66.97;99495.74;1740731;80;21290;-62
2022/11/17 10:06:21;;;;;;;8.55;4.92;;;;;;;1.98;66.67;99488.31;1727006;82;21104;-62
2022/11/17 10:09:31;;;;;;;14.90;6.15;;;;;;;1.98;66.36;99488.78;1737699;81;21139;-62
2022/11/17 10:13:35;;;;;;;9.68;4.60;;;;;;;1.75;67.62;99472.82;1774858;78;22149;-61
2022/11/17 10:16:06;;;;;;;11.35;5.30;;;;;;;1.81;67.24;99475.51;1741039;80;20963;-61
2022/11/17 10:18:37;;;;;;;11.85;6.17;;;;;;;1.85;67.11;99475.72;1743278;80;21269;-61
2022/11/17 10:21:05;;;;;;;10.32;5.08;;;;;;;1.84;67.32;99477.45;1743960;80;20966;-61
2022/11/17 10:23:39;;;;;;;10.70;5.08;;;;;;;1.85;67.80;99476.55;1750892;80;22019;-61
2022/11/17 10:26:10;;;;;;;12.53;5.80;;;;;;;1.89;67.40;99474.60;1756558;80;21030;-61
2022/11/17 10:28:37;;;;;;;10.38;5.30;;;;;;;1.84;67.08;99474.86;1749588;80;21773;-61
2022/11/17 10:31:16;;;;;;;10.70;4.80;;;;;;;1.76;66.93;99471.05;1737448;80;21301;-61
2022/11/17 10:43:27;;;;;;;11.50;5.33;;;;;;;1.64;67.30;99467.41;1738848;80;21066;-61
2022/11/17 10:50:15;;;;;;;13.50;5.30;;;;;;;1.52;67.43;99470.25;1750509;80;21082;-61
2022/11/17 10:52:42;;;;;;;10.75;4.40;;;;;;;1.49;67.54;99461.34;1736237;80;21642;-61
2022/11/17 10:55:19;;;;;;;10.38;5.00;;;;;;;1.46;67.35;99470.15;1750662;81;21027;-61
2022/11/17 10:58:06;;;;;;;9.83;4.45;;;;;;;1.45;67.55;99472.35;1741463;80;21121;-61
2022/11/17 11:00:35;;;;;;;11.78;5.20;;;;;;;1.46;67.93;99470.59;1727329;80;21258;-62
2022/11/17 11:07:12;;;;;;;10.20;5.10;;;;;;;1.50;67.68;99474.69;1743895;81;21114;-61
2022/11/17 11:09:44;;;;;;;13.40;6.97;;;;;;;1.51;67.54;99469.86;1747117;81;21069;-61
2022/11/17 11:12:15;;;;;;;13.78;6.42;;;;;;;1.51;67.44;99469.86;1681691;84;21547;-61
2022/11/17 11:14:50;;;;;;;11.80;5.85;;;;;;;1.54;67.59;99468.39;1742604;81;21212;-61
2022/11/17 11:17:17;;;;;;;13.18;6.08;;;;;;;1.55;67.76;99462.30;1741201;80;20992;-62
2022/11/17 11:19:52;;;;;;;9.13;4.67;;;;;;;1.60;67.94;99464.16;1742850;81;21008;-62
2022/11/17 11:22:40;;;;;;;10.48;4.40;;;;;;;1.63;67.77;99458.80;1742786;81;21047;-62
2022/11/17 11:25:43;;;;;;;10.98;5.33;;;;;;;1.61;67.30;99459.33;1742884;81;21046;-61
2022/11/17 11:28:49;;;;;;;13.05;4.55;;;;;;;1.58;67.49;99456.09;1740071;80;21259;-61
2022/11/17 11:31:50;;;;;;;12.73;5.90;;;;;;;1.61;67.63;99459.33;1755260;81;21134;-62
2022/11/17 11:34:41;;;;;;;12.63;5.78;;;;;;;1.60;67.28;99455.56;1707829;82;21102;-61
2022/11/17 11:37:10;;;;;;;10.75;5.65;;;;;;;1.54;67.24;99460.62;1738597;82;21027;-61
2022/11/17 11:40:10;;;;;;;11.35;5.28;;;;;;;1.51;67.57;99461.26;1744472;80;21511;-61
2022/11/17 11:42:58;;;;;;;11.20;6.47;;;;;;;1.49;67.47;99463.47;1711895;80;22127;-61
2022/11/17 11:45:48;;;;;;;13.40;5.55;;;;;;;1.48;67.15;99460.52;1747349;82;21089;-61
2022/11/17 11:48:27;;;;;;;11.00;4.65;;;;;;;1.49;67.60;99467.83;1740271;82;21238;-61
2022/11/17 11:51:00;;;;;;;12.63;6.85;;;;;;;1.51;67.96;99457.38;1744582;80;21040;-61
2022/11/17 11:53:59;;;;;;;14.73;5.28;;;;;;;1.49;68.00;99454.39;1737461;82;21098;-61
2022/11/17 11:56:38;;;;;;;12.18;6.37;;;;;;;1.52;67.98;99450.80;1744658;80;22240;-61
2022/11/17 11:59:25;;;;;;;21.40;12.98;;;;;;;1.53;67.97;99449.03;1735616;80;21098;-61
2022/11/17 12:02:06;;;;;;;12.95;5.20;;;;;;;1.52;67.34;99448.68;1742236;80;21039;-61
2022/11/17 12:05:00;;;;;;;11.75;5.33;;;;;;;1.49;67.50;99448.38;1737521;80;21559;-61
2022/11/17 12:07:38;;;;;;;9.93;4.92;;;;;;;1.51;67.59;99441.81;1738716;82;21055;-61
2022/11/17 12:10:14;;;;;;;13.25;5.53;;;;;;;1.46;67.85;99427.38;1743123;80;21252;-62
2022/11/17 12:12:41;;;;;;;10.18;5.05;;;;;;;1.46;67.98;99427.38;1730761;80;21631;-61
2022/11/17 12:15:21;;;;;;;13.72;5.55;;;;;;;1.51;67.80;99430.97;1692595;82;21246;-62
2022/11/17 12:18:01;;;;;;;11.40;6.30;;;;;;;1.51;67.95;99437.45;1733961;80;22477;-62
2022/11/17 12:20:42;;;;;;;10.53;4.70;;;;;;;1.53;67.56;99433.04;1730758;82;21067;-62
2022/11/17 12:23:32;;;;;;;9.73;4.87;;;;;;;1.52;67.51;99433.95;1736085;82;21236;-62
2022/11/17 12:25:59;;;;;;;10.68;5.12;;;;;;;1.55;67.49;99439.44;1729359;82;21141;-62
2022/11/17 12:28:39;;;;;;;14.10;7.40;;;;;;;1.55;67.33;99432.48;1733172;80;21070;-61
2022/11/17 12:31:42;;;;;;;11.88;5.97;;;;;;;1.54;67.34;99442.94;1736232;80;21052;-61
2022/11/17 12:34:16;;;;;;;12.35;5.67;;;;;;;1.53;66.98;99440.81;1737386;82;21071;-62
2022/11/17 12:36:43;;;;;;;13.08;6.70;;;;;;;1.48;66.87;99435.89;1720929;80;21067;-61
2022/11/17 12:39:21;;;;;;;13.78;5.50;;;;;;;1.45;67.43;99430.88;1700795;82;21125;-62
2022/11/17 12:41:53;;;;;;;15.15;7.25;;;;;;;1.47;67.34;99432.91;1710842;82;21059;-62
2022/11/17 12:44:49;;;;;;;10.90;5.70;;;;;;;1.47;67.38;99430.79;1733001;80;21070;-63
2022/11/17 12:47:22;;;;;;;12.55;6.08;;;;;;;1.48;67.45;99429.87;1733924;82;26469;-62
2022/11/17 12:50:18;;;;;;;14.20;6.12;;;;;;;1.52;67.80;99435.25;1728255;80;21815;-62
2022/11/17 12:53:08;;;;;;;14.55;6.67;;;;;;;1.56;67.79;99432.84;1720967;80;21517;-62
2022/11/17 12:55:49;;;;;;;15.72;5.35;;;;;;;1.60;67.45;99427.03;1731091;81;21050;-60
2022/11/17 12:58:29;;;;;;;11.90;5.20;;;;;;;1.58;67.71;99419.34;1728633;80;21128;-62
2022/11/17 13:01:25;;;;;;;9.78;5.53;;;;;;;1.60;67.73;99408.41;1729231;80;21114;-62
2022/11/17 13:04:00;;;;;;;13.03;4.72;;;;;;;1.58;67.46;99410.27;1727422;80;21093;-62
2022/11/17 13:06:27;;;;;;;11.08;5.37;;;;;;;1.55;67.37;99403.96;1737789;80;25810;-61
2022/11/17 13:09:00;;;;;;;11.83;5.90;;;;;;;1.49;66.99;99409.49;1727217;80;21029;-61
2022/11/17 13:11:27;;;;;;;12.53;6.35;;;;;;;1.46;67.14;99403.19;1727507;80;21114;-63
2022/11/17 13:14:12;;;;;;;12.55;5.28;;;;;;;1.45;67.54;99401.53;1729133;80;21075;-61
2022/11/17 13:16:47;;;;;;;14.30;6.35;;;;;;;1.42;67.31;99399.94;1742432;80;21154;-62
2022/11/17 13:19:31;;;;;;;13.72;7.25;;;;;;;1.39;67.72;99409.19;1738333;80;21056;-62
2022/11/17 13:22:15;;;;;;;12.95;6.60;;;;;;;1.41;67.90;99401.32;1733235;80;21035;-61
2022/11/17 13:24:45;;;;;;;14.23;5.65;;;;;;;1.45;67.79;99403.66;1733295;80;21138;-61
2022/11/17 13:27:25;;;;;;;9.85;6.05;;;;;;;1.45;67.38;99398.47;1730242;80;21614;-62
2022/11/17 13:30:19;;;;;;;12.25;5.90;;;;;;;1.44;67.49;99401.97;1726084;80;21434;-61
2022/11/17 13:32:46;;;;;;;17.73;8.13;;;;;;;1.42;67.62;99387.45;1731034;80;21043;-60
2022/11/17 13:35:27;;;;;;;13.03;6.03;;;;;;;1.42;67.99;99383.56;1747472;80;21098;-61
2022/11/17 13:38:06;;;;;;;13.10;5.67;;;;;;;1.42;68.00;99384.86;1738533;80;21537;-60
2022/11/17 13:40:35;;;;;;;10.32;4.90;;;;;;;1.44;67.99;99376.52;1736089;80;21026;-60
2022/11/17 13:43:03;;;;;;;11.78;5.35;;;;;;;1.45;67.82;99380.33;1736321;80;21702;-60
2022/11/17 13:45:29;;;;;;;10.60;5.90;;;;;;;1.42;67.65;99375.78;1732012;82;21533;-61
2022/11/17 13:47:58;;;;;;;14.40;7.30;;;;;;;1.42;67.51;99373.19;1727174;80;21555;-61
2022/11/17 13:50:32;;;;;;;14.10;6.08;;;;;;;1.42;67.74;99373.19;1734128;80;21004;-62
2022/11/17 13:53:24;;;;;;;12.80;5.50;;;;;;;1.46;67.87;99372.08;1729989;80;21035;-62
2022/11/17 13:55:50;;;;;;;11.85;5.17;;;;;;;1.48;67.72;99366.36;1731538;80;21142;-60
2022/11/17 13:58:22;;;;;;;11.75;6.12;;;;;;;1.51;67.75;99360.97;1732254;80;21020;-64
2022/11/17 14:00:57;;;;;;;17.82;8.20;;;;;;;1.49;67.50;99370.13;1737030;82;21038;-59
2022/11/17 14:03:38;;;;;;;10.93;5.62;;;;;;;1.44;67.27;99364.86;1730480;80;21094;-65
2022/11/17 14:06:09;;;;;;;11.93;6.00;;;;;;;1.40;66.92;99368.56;1735367;80;21130;-60
2022/11/17 14:10:21;;;;;;;12.37;6.20;;;;;;;1.35;67.48;99367.53;1798219;77;22219;-60
2022/11/17 14:12:49;;;;;;;14.03;5.90;;;;;;;1.39;66.95;99369.48;1774001;78;21331;-59
2022/11/17 14:15:24;;;;;;;11.43;5.53;;;;;;;1.38;67.37;99372.54;1774183;80;21323;-60
2022/11/17 14:17:52;;;;;;;13.00;6.05;;;;;;;1.38;67.51;99376.87;1770392;80;21590;-61
2022/11/17 14:20:30;;;;;;;11.45;5.62;;;;;;;1.35;67.33;99385.67;1770250;79;20973;-60
2022/11/17 14:23:16;;;;;;;12.95;5.75;;;;;;;1.33;67.67;99387.52;1768070;80;21544;-61
2022/11/17 14:25:48;;;;;;;11.80;5.47;;;;;;;1.32;67.83;99390.20;1774770;78;21032;-61
2022/11/17 14:28:18;;;;;;;12.20;5.92;;;;;;;1.36;68.09;99387.80;1769757;79;21179;-62